Flight Track Log - Related Links

Times and Time Zones

All times are in EDT time to prevent confusion due to time zone crossing. See the UAL612 flight status page for this flight to view local times or setup timezone preferences in your user account.

Time Position Orientation Groundspeed Altitude Reporting Facility
EDT Latitude Longitude Course Direction KTS MPH feet Rate Location/Type
Sat 08:33:45 AM 40.7711 -111.9744 131° Southeast 177 204 5,200  Level Salt Lake Center
Sat 08:35:04 AM 40.7528 -112.0547 253° West 232 267 6,700 1,640 Climbing Salt Lake Center
Sat 08:36:04 AM 40.8033 -112.1250 314° West 273 314 9,000 2,281 Climbing Salt Lake Center
Sat 08:37:05 AM 40.8592 -112.0750 34° Northeast 294 338 11,300 1,983 Climbing Salt Lake Center
Sat 08:38:05 AM 40.8361 -111.9717 106° East 307 353 13,000 1,240 Climbing Salt Lake Center
Sat 08:39:00 AM 40.9066 -111.8512 131° Southeast  Level FlightAware Approximate
Sat 08:39:06 AM 40.8075 -111.8511 107° East 353 406 13,800  Level Salt Lake Center
Sat 08:40:06 AM 40.7775 -111.7161 106° East 386 444 15,300 3,124 Climbing Salt Lake Center
Sat 08:41:07 AM 40.7369 -111.5547 108° East 381 438 20,100 3,025 Climbing Salt Lake Center
Sat 08:42:07 AM 40.6964 -111.4158 111° Southeast 413 475 21,400 1,488 Climbing Salt Lake Center
Sat 08:43:08 AM 40.6550 -111.2714 111° Southeast 422 486 23,100 1,339 Climbing Salt Lake Center
Sat 08:44:08 AM 40.6119 -111.1253 111° Southeast 427 491 24,100 1,140 Climbing Salt Lake Center
Sat 08:45:09 AM 40.5681 -110.9719 111° Southeast 446 513 25,400 1,240 Climbing Salt Lake Center
Sat 08:46:09 AM 40.5222 -110.8178 111° Southeast 455 524 26,600 1,091 Climbing Salt Lake Center
Sat 08:47:10 AM 40.4758 -110.6600 111° Southeast 463 533 27,600 893 Climbing Salt Lake Center
Sat 08:48:10 AM 40.4244 -110.4958 112° Southeast 475 547 28,400 893 Climbing Salt Lake Center
Sat 08:49:11 AM 40.3578 -110.3506 121° Southeast 484 557 29,400 992 Climbing Salt Lake Center
Sat 08:50:11 AM 40.2836 -110.2100 125° Southeast 488 562 30,400 1,388 Climbing Salt Lake Center
Sat 08:51:12 AM 40.2006 -110.0506 124° Southeast 477 549 32,200 1,388 Climbing Salt Lake Center
Sat 08:52:12 AM 40.1300 -109.9150 124° Southeast 472 543 33,200 942 Climbing Salt Lake Center
Sat 08:53:13 AM 40.0589 -109.7792 124° Southeast 474 545 34,100 843 Climbing Salt Lake Center
Sat 08:54:13 AM 39.9750 -109.6214 125° Southeast 474 545 34,900 446 Climbing Salt Lake Center
Sat 08:55:14 AM 39.9031 -109.4853 125° Southeast 477 549 35,000 49 Climbing Salt Lake Center
Sat 08:56:15 AM 39.8308 -109.3481 124° Southeast 479 551 35,000  Level Salt Lake Center
Sat 08:56:56 AM 39.7700 -109.2353 125° Southeast 476 548 35,000  Level Denver Center
Sat 08:57:57 AM 39.7106 -109.1242 125° Southeast 473 544 35,000  Level Denver Center
Sat 08:58:58 AM 39.6258 -108.9678 125° Southeast 476 548 35,000  Level Denver Center
Sat 08:59:59 AM 39.5406 -108.8161 126° Southeast 481 554 35,000  Level Denver Center
Sat 09:00:59 AM 39.4722 -108.6825 123° Southeast 475 547 35,000  Level Denver Center
Sat 09:02:00 AM 39.3889 -108.5292 125° Southeast 470 541 35,000  Level Denver Center
Sat 09:03:01 AM 39.3167 -108.3972 125° Southeast 469 540 35,000  Level Denver Center
Sat 09:04:02 AM 39.2331 -108.2428 125° Southeast 466 536 35,000  Level Denver Center
Sat 09:05:03 AM 39.1600 -108.1111 126° Southeast 471 542 35,000  Level Denver Center
Sat 09:06:04 AM 39.0878 -107.9806 125° Southeast 469 540 35,000  Level Denver Center
Sat 09:07:05 AM 39.0028 -107.8306 126° Southeast 465 535 35,000  Level Denver Center
Sat 09:08:05 AM 38.9289 -107.7000 126° Southeast 470 541 35,000  Level Denver Center
Sat 09:09:06 AM 38.8553 -107.5692 126° Southeast 472 543 35,000  Level Denver Center
Sat 09:10:07 AM 38.7683 -107.4158 126° Southeast 474 545 35,000  Level Denver Center
Sat 09:11:08 AM 38.6942 -107.2853 126° Southeast 475 547 35,000  Level Denver Center
Sat 09:12:09 AM 38.6122 -107.1419 126° Southeast 472 543 35,000  Level Denver Center
Sat 09:13:09 AM 38.5344 -107.0053 126° Southeast 476 548 35,000  Level Denver Center
Sat 09:14:10 AM 38.4583 -106.8711 126° Southeast 470 541 35,000  Level Denver Center
Sat 09:15:11 AM 38.3814 -106.7383 126° Southeast 468 539 35,000  Level Denver Center
Sat 09:16:12 AM 38.2997 -106.6019 127° Southeast 463 533 35,000  Level Denver Center
Sat 09:17:13 AM 38.2272 -106.4733 126° Southeast 472 543 35,000  Level Denver Center
Sat 09:18:14 AM 38.1647 -106.3681 127° Southeast 469 540 35,000  Level Denver Center
Sat 09:19:15 AM 38.0719 -106.2086 126° Southeast 469 540 35,000  Level Denver Center
Sat 09:20:15 AM 37.9844 -106.0603 127° Southeast 471 542 35,000  Level Denver Center
Sat 09:21:16 AM 37.9100 -105.9333 127° Southeast 471 542 35,000  Level Denver Center
Sat 09:22:17 AM 37.8339 -105.8061 127° Southeast 473 544 35,000  Level Denver Center
Sat 09:23:18 AM 37.7467 -105.6597 127° Southeast 468 539 35,000  Level Denver Center
Sat 09:24:19 AM 37.6703 -105.5336 127° Southeast 473 544 35,000  Level Denver Center
Sat 09:25:20 AM 37.5958 -105.4075 127° Southeast 471 542 35,000  Level Denver Center
Sat 09:26:21 AM 37.5103 -105.2664 127° Southeast 472 543 35,000  Level Denver Center
Sat 09:27:22 AM 37.4319 -105.1347 127° Southeast 470 541 35,000  Level Denver Center
Sat 09:28:23 AM 37.3425 -104.9886 128° Southeast 472 543 35,000  Level Denver Center
Sat 09:29:24 AM 37.2658 -104.8642 128° Southeast 473 544 35,000  Level Denver Center
Sat 09:30:25 AM 37.1906 -104.7406 127° Southeast 470 541 35,000  Level Denver Center
Sat 09:31:26 AM 37.1008 -104.5958 128° Southeast 470 541 35,000  Level Denver Center
Sat 09:32:27 AM 37.0244 -104.4711 127° Southeast 473 544 35,000  Level Denver Center
Sat 09:33:27 AM 36.9469 -104.3467 128° Southeast 476 548 35,000  Level Denver Center
Sat 09:34:02 AM 36.8964 -104.2656 128° Southeast 471 542 35,000  Level Albuquerque Center
Sat 09:35:03 AM 36.8192 -104.1431 128° Southeast 470 541 35,000  Level Albuquerque Center
Sat 09:36:03 AM 36.7294 -104.0000 128° Southeast 471 542 35,000  Level Albuquerque Center
Sat 09:37:04 AM 36.6522 -103.8772 128° Southeast 474 545 35,000  Level Albuquerque Center
Sat 09:38:05 AM 36.5694 -103.7458 128° Southeast 476 548 35,000  Level Albuquerque Center
Sat 09:39:06 AM 36.4861 -103.6156 128° Southeast 477 549 35,000  Level Albuquerque Center
Sat 09:40:07 AM 36.4033 -103.4844 128° Southeast 477 549 35,000  Level Albuquerque Center
Sat 09:41:08 AM 36.3197 -103.3531 128° Southeast 479 551 35,000  Level Albuquerque Center
Sat 09:42:09 AM 36.2361 -103.2231 129° Southeast 479 551 35,000  Level Albuquerque Center
Sat 09:43:10 AM 36.1531 -103.0939 129° Southeast 475 547 35,000  Level Albuquerque Center
Sat 09:44:11 AM 36.0708 -102.9647 128° Southeast 473 544 35,000  Level Albuquerque Center
Sat 09:45:11 AM 35.9919 -102.8456 129° Southeast 473 544 35,000  Level Albuquerque Center
Sat 09:46:12 AM 35.8950 -102.6939 128° Southeast 470 541 35,000  Level Albuquerque Center
Sat 09:47:13 AM 35.8122 -102.5692 129° Southeast 470 541 35,000  Level Albuquerque Center
Sat 09:48:14 AM 35.7303 -102.4439 129° Southeast 470 541 35,000  Level Albuquerque Center
Sat 09:49:15 AM 35.6481 -102.3181 129° Southeast 472 543 35,000  Level Albuquerque Center
Sat 09:50:16 AM 35.5500 -102.2089 138° Southeast 478 550 35,000  Level Albuquerque Center
Sat 09:51:17 AM 35.4514 -102.1039 139° Southeast 474 545 35,000  Level Albuquerque Center
Sat 09:52:18 AM 35.3522 -101.9986 139° Southeast 473 544 35,000  Level Albuquerque Center
Sat 09:53:19 AM 35.2567 -101.8950 138° Southeast 473 544 35,000  Level Albuquerque Center
Sat 09:54:20 AM 35.1553 -101.7900 140° Southeast 472 543 35,000  Level Albuquerque Center
Sat 09:55:21 AM 35.0394 -101.6664 139° Southeast 470 541 35,000  Level Albuquerque Center
Sat 09:56:23 AM 34.9431 -101.5653 139° Southeast 470 541 35,000  Level Albuquerque Center
Sat 09:57:24 AM 34.8456 -101.4611 139° Southeast 471 542 35,000  Level Albuquerque Center
Sat 09:58:25 AM 34.7528 -101.3503 136° Southeast 470 541 35,000  Level Albuquerque Center
Sat 09:59:26 AM 34.6786 -101.2211 125° Southeast 468 539 35,000  Level Albuquerque Center
Sat 10:00:27 AM 34.6044 -101.0922 125° Southeast 468 539 35,000  Level Albuquerque Center
Sat 10:01:28 AM 34.5303 -100.9647 125° Southeast 464 534 35,000  Level Albuquerque Center
Sat 10:02:29 AM 34.4561 -100.8383 125° Southeast 463 533 35,000  Level Albuquerque Center
Sat 10:03:31 AM 34.3669 -100.6853 125° Southeast 464 534 35,000  Level Albuquerque Center
Sat 10:04:32 AM 34.2911 -100.5569 126° Southeast 468 539 35,000  Level Albuquerque Center
Sat 10:05:33 AM 34.2164 -100.4289 125° Southeast 467 537 35,000  Level Albuquerque Center
Sat 10:06:34 AM 34.1461 -100.3094 125° Southeast 468 539 35,000  Level Fort Worth Center
Sat 10:07:34 AM 34.0697 -100.1814 126° Southeast 468 539 35,000 350 Level Fort Worth Center
Sat 10:08:34 AM 33.9931 -100.0564 126° Southeast 468 539 35,700 950 Climbing Fort Worth Center
Sat 10:09:34 AM 33.9183 -99.9339 126° Southeast 462 532 36,900 650 Climbing Fort Worth Center
Sat 10:10:34 AM 33.8436 -99.8067 125° Southeast 462 532 37,000 50 Climbing Fort Worth Center
Sat 10:11:34 AM 33.7689 -99.6797 125° Southeast 467 537 37,000  Level Fort Worth Center
Sat 10:12:34 AM 33.6897 -99.5528 127° Southeast 472 543 37,000  Level Fort Worth Center
Sat 10:13:34 AM 33.6125 -99.4239 126° Southeast 472 543 37,000  Level Fort Worth Center
Sat 10:14:34 AM 33.5350 -99.2975 126° Southeast 472 543 37,000  Level Fort Worth Center
Sat 10:15:34 AM 33.4578 -99.1689 126° Southeast 472 543 37,000  Level Fort Worth Center
Sat 10:16:34 AM 33.3719 -99.0303 127° Southeast 472 543 37,000  Level Fort Worth Center
Sat 10:17:34 AM 33.2919 -98.9019 127° Southeast 478 550 37,000  Level Fort Worth Center
Sat 10:18:34 AM 33.2142 -98.7742 126° Southeast 478 550 37,000  Level Fort Worth Center
Sat 10:19:34 AM 33.1361 -98.6489 127° Southeast 478 550 37,000  Level Fort Worth Center
Sat 10:20:34 AM 33.0558 -98.5214 127° Southeast 478 550 37,000  Level Fort Worth Center
Sat 10:21:34 AM 32.9778 -98.4014 128° Southeast 472 543 37,000  Level Fort Worth Center
Sat 10:22:34 AM 32.9014 -98.2769 126° Southeast 466 536 37,000  Level Fort Worth Center
Sat 10:23:34 AM 32.8228 -98.1525 127° Southeast 471 542 37,000  Level Fort Worth Center
Sat 10:24:34 AM 32.7442 -98.0283 127° Southeast 471 542 37,000  Level Fort Worth Center
Sat 10:25:34 AM 32.6508 -97.9094 133° Southeast 472 543 37,000  Level Fort Worth Center
Sat 10:26:34 AM 32.5633 -97.7981 133° Southeast 472 543 37,000  Level Fort Worth Center
Sat 10:27:34 AM 32.4697 -97.6819 134° Southeast 472 543 37,000  Level Fort Worth Center
Sat 10:28:34 AM 32.3864 -97.5831 135° Southeast 472 543 37,000  Level Fort Worth Center
Sat 10:29:34 AM 32.2989 -97.4700 132° Southeast 472 543 37,000  Level Fort Worth Center
Sat 10:30:34 AM 32.2069 -97.3569 134° Southeast 472 543 37,000 -100 Level Fort Worth Center
Sat 10:31:34 AM 32.1172 -97.2467 134° Southeast 472 543 36,800 -500 Descending Fort Worth Center
Sat 10:32:34 AM 32.0272 -97.1292 132° Southeast 477 549 36,000 -1,100 Descending Fort Worth Center
Sat 10:33:34 AM 31.9289 -97.0094 134° Southeast 472 543 34,600 -1,400 Descending Fort Worth Center
Sat 10:34:34 AM 31.8386 -96.8975 133° Southeast 472 543 33,200 -1,326 Descending Fort Worth Center
Sat 10:35:09 AM 31.7917 -96.8408 134° Southeast 470 541 32,500 -1,299 Descending Houston Center
Sat 10:36:11 AM 31.6964 -96.7306 135° Southeast 473 544 31,100 -1,317 Descending Houston Center
Sat 10:37:12 AM 31.5817 -96.6542 150° Southeast 467 537 29,800 -1,024 Descending Houston Center
Sat 10:38:14 AM 31.4694 -96.5794 150° Southeast 457 526 29,000 -387 Descending Houston Center
Sat 10:39:16 AM 31.3589 -96.5069 151° Southeast 450 518 29,000 -878 Level Houston Center
Sat 10:40:17 AM 31.2428 -96.4208 148° Southeast 482 555 27,200 -2,195 Descending Houston Center
Sat 10:41:19 AM 31.1275 -96.3386 149° Southeast 479 551 24,500 -2,806 Descending Houston Center
Sat 10:42:21 AM 31.0189 -96.2608 148° Southeast 453 521 21,400 -3,366 Descending Houston Center
Sat 10:43:22 AM 30.8936 -96.1736 149° Southeast 445 512 17,600 -3,366 Descending Houston Center
Sat 10:44:24 AM 30.7931 -96.1019 149° Southeast 424 488 14,500 -2,661 Descending Houston Center
Sat 10:45:26 AM 30.7081 -96.0417 149° Southeast 402 463 12,100 -2,596 Descending Houston Center
Sat 10:46:08 AM 30.6297 -95.9881 150° Southeast 376 433 10,000 -1,223 Descending Houston Center
Sat 10:47:09 AM 30.5514 -95.9317 148° Southeast 304 350 10,000  Level Houston Center
Sat 10:48:04 AM 30.4867 -95.8858 149° Southeast 295 339 10,000  Level Houston Center
Sat 10:49:05 AM 30.4208 -95.8303 144° Southeast 291 335 10,000 -328 Level Houston Center
Sat 10:50:12 AM 30.3411 -95.7817 152° Southeast 294 338 9,300 -984 Descending Houston Center
Sat 10:51:13 AM 30.2633 -95.7569 165° South 283 326 7,900 -1,453 Descending Houston Center
Sat 10:52:20 AM 30.1883 -95.7150 154° Southeast 278 320 6,200 -1,552 Descending Houston Center
Sat 10:53:09 AM 30.1364 -95.6728 145° Southeast 269 310 4,900 -1,293 Descending Houston Center
Sat 10:54:16 AM 30.0764 -95.6122 139° Southeast 272 313 3,700 -844 Descending Houston Center
Sat 10:55:17 AM 30.0217 -95.5631 142° Southeast 230 265 3,100 -541 Descending Houston Center
Sat 10:56:18 AM 29.9961 -95.5156 122° Southeast 170 196 2,600 -689 Descending Houston Center
Sat 10:57:19 AM 29.9931 -95.4556 93° East 187 215 1,700 -836 Descending Houston Center
Sat 10:58:20 AM 29.9922 -95.4025 91° East 157 181 900 -523 Descending Houston Center
Sat 10:59:48 AM 29.9944 -95.3364 88° East 161 185 400 -341 Descending Houston Center
Sat 11:01:00 AM 29.9833 -95.3333 131° Southeast  Level FlightAware Approximate

Login

Don't have an account? Register now (free) for customized features, flight alerts, and more!